Nathrop, CO

2:10 PM MST on November 25, 2014 (GMT -0700)
Gigshowcase.com | Change Station
CLOSE
Current Station
Personal Weather Station
Location: Buena Vista, CO
Elevation: 8827 ft
Nearby Weather Stations

Elev 8827 ft 38.75 °N, 106.17 °W | Updated 35 seconds ago

Mostly Cloudy
Mostly Cloudy
42.1 °F
Feels Like 35 °F
N
13.0
Wind Variable Wind from North
Gusts 19.0 mph

Today
High -- | Low -- °F
--% Chance of Precip.
Yesterday
High -- | Low -- °F
Precip. -- in
6:57 AM 4:45 PM
Waxing Crescent, 14% visible
Pressure 30.07 in
Visibility 10.0 miles
Clouds Scattered Clouds 8000 ft
Windchill 35 °F
Dew Point 17 °F
Humidity 36%
Rainfall 0.00 in
Snow Depth Not available.
UV 2 out of 12
Pollen .10 out of 12
Air Quality Not available.
Flu Activity Not available.
METAR KAEJ 252055Z AUTO 29024G34KT 10SM SCT080 01/M10 A3007 RMK AO2 T00081100

More Conditions Fewer Conditions

Pressure 30.07 in
Visibility 10.0 miles
Clouds Scattered Clouds 8000 ft
Windchill 35 °F
Dew Point 17 °F
Humidity 36%
Rainfall 0.00 in
Snow Depth Not available.
UV 2 out of 12
Pollen .10 out of 12
Air Quality Not available.
Flu Activity Not available.
METAR KAEJ 252055Z AUTO 29024G34KT 10SM SCT080 01/M10 A3007 RMK AO2 T00081100

More Conditions Fewer Conditions

10-Day Weather Forecast

Almanac

Astronomy

Nov. 25, 2014 Rise Set
Actual Time
Civil Twilight
Nautical Twilight
Astronomical Twilight
Moon
Length of Visible Light
Length of Day
Tomorrow will be .
, % of the Moon is Illuminated

Today's Extremes

State Highs State Lows

Community

WunderPhotos

Upload Photos

1,773,588 photos uploaded!

WunderBlogs® & News

Nearby

Air Quality

  Air Quality AQ Index Pollutant
Not available.

Snow Depth

Station Depth Elevation

Earthquake Activity

City Distance Mag. Time & Date
Minimum magnitude displayed is 2.5.

Coastal Water Temperatures

Place Temperature

Nearby Weather Stations